createdAt,value
2023-05-12T00:02:02.432Z,98357.16
2023-05-12T00:04:31.159Z,98355.38
2023-05-12T00:06:59.744Z,98358.63
2023-05-12T00:09:28.531Z,98359.78
2023-05-12T00:11:56.803Z,98358.16
2023-05-12T00:14:25.403Z,98350.28
2023-05-12T00:16:53.665Z,98355.00
2023-05-12T00:19:23.801Z,98355.25
2023-05-12T00:21:52.053Z,98349.75
2023-05-12T00:24:20.803Z,98351.75
2023-05-12T00:26:49.637Z,98350.06
2023-05-12T00:29:21.663Z,98359.47
2023-05-12T00:31:51.015Z,98356.13
2023-05-12T00:34:19.619Z,98359.44
2023-05-12T00:36:49.318Z,98356.13
2023-05-12T00:39:18.012Z,98358.81
2023-05-12T00:41:47.886Z,98355.13
2023-05-12T00:44:18.707Z,98361.97
2023-05-12T00:46:47.070Z,98357.00
2023-05-12T00:49:15.834Z,98363.59
2023-05-12T00:51:44.378Z,98369.34
2023-05-12T00:54:14.381Z,98361.31
2023-05-12T00:56:43.425Z,98362.09
2023-05-12T00:59:12.219Z,98351.09
2023-05-12T01:01:40.541Z,98367.84
2023-05-12T01:04:09.224Z,98363.59
2023-05-12T01:06:40.421Z,98369.34
2023-05-12T01:09:09.385Z,98367.75
2023-05-12T01:11:39.106Z,98364.69
2023-05-12T01:14:07.789Z,98367.97
2023-05-12T01:16:37.910Z,98373.41
2023-05-12T01:19:08.309Z,98372.50
2023-05-12T01:21:37.208Z,98368.44
2023-05-12T01:24:08.933Z,98377.38
2023-05-12T01:26:38.405Z,98367.84
2023-05-12T01:29:07.710Z,98372.91
2023-05-12T01:31:36.188Z,98372.63
2023-05-12T01:34:04.944Z,98378.56
2023-05-12T01:36:34.278Z,98373.88
2023-05-12T01:39:02.862Z,98377.72
2023-05-12T01:41:31.206Z,98376.84
2023-05-12T01:44:01.651Z,98380.63
2023-05-12T01:46:30.028Z,98374.69
2023-05-12T01:48:58.696Z,98371.53
2023-05-12T01:51:26.844Z,98376.41
2023-05-12T01:53:55.526Z,98374.78
2023-05-12T01:56:24.015Z,98377.81
2023-05-12T01:58:52.469Z,98378.91
2023-05-12T02:01:23.504Z,98378.47
2023-05-12T02:03:52.292Z,98382.91
2023-05-12T02:06:21.502Z,98374.97
2023-05-12T02:08:51.051Z,98376.19
2023-05-12T02:11:19.484Z,98380.47
2023-05-12T02:13:48.176Z,98382.34
2023-05-12T02:16:17.155Z,98380.13
2023-05-12T02:18:47.213Z,98375.06
2023-05-12T02:21:15.640Z,98382.47
2023-05-12T02:23:44.133Z,98384.06
2023-05-12T02:26:12.443Z,98369.72
2023-05-12T02:28:41.645Z,98377.38
2023-05-12T02:31:09.976Z,98376.03
2023-05-12T02:33:38.621Z,98381.16
2023-05-12T02:36:09.528Z,98377.88
2023-05-12T02:38:39.956Z,98388.34
2023-05-12T02:41:09.263Z,98386.13
2023-05-12T02:43:37.704Z,98388.34
2023-05-12T02:46:06.506Z,98388.84
2023-05-12T02:48:35.128Z,98380.34
2023-05-12T02:51:03.514Z,98381.75
2023-05-12T02:53:33.824Z,98386.13
2023-05-12T02:56:02.556Z,98380.41
2023-05-12T02:58:31.218Z,98381.94
2023-05-12T03:01:09.420Z,98382.28
2023-05-12T03:03:39.733Z,98378.53
2023-05-12T03:06:08.889Z,98383.09
2023-05-12T03:08:38.725Z,98382.47
2023-05-12T03:11:07.296Z,98383.44
2023-05-12T03:13:36.019Z,98381.34
2023-05-12T03:16:04.607Z,98389.84
2023-05-12T03:18:33.325Z,98384.91
2023-05-12T03:21:04.732Z,98383.16
2023-05-12T03:23:33.310Z,98384.91
2023-05-12T03:26:03.154Z,98382.34
2023-05-12T03:28:32.723Z,98384.41
2023-05-12T03:31:01.366Z,98396.13
2023-05-12T03:33:30.413Z,98381.91
2023-05-12T03:35:58.880Z,98388.81
2023-05-12T03:38:27.605Z,98384.28
2023-05-12T03:41:06.364Z,98384.63
2023-05-12T03:43:36.974Z,98388.44
2023-05-12T03:46:05.540Z,98382.88
2023-05-12T03:48:34.199Z,98384.97
2023-05-12T03:51:02.486Z,98383.00
2023-05-12T03:53:31.722Z,98383.22
2023-05-12T03:56:04.886Z,98389.31
2023-05-12T03:58:35.300Z,98395.16
2023-05-12T04:01:03.734Z,98398.59
2023-05-12T04:03:32.657Z,98385.00
2023-05-12T04:06:01.930Z,98392.25
2023-05-12T04:08:30.854Z,98385.59
2023-05-12T04:10:59.811Z,98391.19
2023-05-12T04:13:28.979Z,98392.38
2023-05-12T04:15:59.713Z,98395.44
2023-05-12T04:18:29.232Z,98386.75
2023-05-12T04:20:57.781Z,98396.78
2023-05-12T04:23:26.940Z,98390.06
2023-05-12T04:25:55.312Z,98396.84
2023-05-12T04:28:24.260Z,98385.72
2023-05-12T04:30:52.689Z,98397.13
2023-05-12T04:33:22.821Z,98395.13
2023-05-12T04:35:50.967Z,98395.66
2023-05-12T04:38:19.580Z,98395.34
2023-05-12T04:40:47.741Z,98404.00
2023-05-12T04:45:47.431Z,98401.50
2023-05-12T04:48:16.285Z,98408.31
2023-05-12T04:50:46.207Z,98406.91
2023-05-12T04:53:14.844Z,98409.38
2023-05-12T04:55:46.097Z,98410.66
2023-05-12T04:58:14.597Z,98408.00
2023-05-12T05:00:44.211Z,98412.19
2023-05-12T05:03:13.051Z,98416.44
2023-05-12T05:05:41.412Z,98417.94
2023-05-12T05:08:11.876Z,98413.44
2023-05-12T05:10:40.160Z,98415.09
2023-05-12T05:13:08.923Z,98422.81
2023-05-12T05:15:37.354Z,98418.09
2023-05-12T05:18:06.562Z,98413.72
2023-05-12T05:20:35.603Z,98419.47
2023-05-12T05:23:04.296Z,98414.72
2023-05-12T05:25:34.179Z,98414.50
2023-05-12T05:28:02.980Z,98411.97
2023-05-12T05:30:31.276Z,98412.84
2023-05-12T05:33:00.059Z,98410.53
2023-05-12T05:35:28.414Z,98413.25
2023-05-12T05:37:57.011Z,98418.91
2023-05-12T05:40:25.555Z,98419.50
2023-05-12T05:42:55.612Z,98415.22
2023-05-12T05:45:23.954Z,98414.97
2023-05-12T05:47:53.397Z,98425.88
2023-05-12T05:50:21.996Z,98417.38
2023-05-12T05:52:50.766Z,98421.69
2023-05-12T05:55:19.463Z,98433.28
2023-05-12T05:57:49.081Z,98419.97
2023-05-12T06:00:19.369Z,98425.28
2023-05-12T06:02:48.760Z,98419.44
2023-05-12T06:05:18.363Z,98428.50
2023-05-12T06:07:47.177Z,98427.28
2023-05-12T06:10:15.604Z,98431.72
2023-05-12T06:12:44.416Z,98431.16
2023-05-12T06:15:12.944Z,98434.94
2023-05-12T06:17:43.247Z,98441.50
2023-05-12T06:20:13.533Z,98429.75
2023-05-12T06:22:44.598Z,98436.81
2023-05-12T06:25:13.021Z,98435.00
2023-05-12T06:27:41.622Z,98433.00
2023-05-12T06:30:12.996Z,98434.06
2023-05-12T06:32:44.371Z,98428.78
2023-05-12T06:35:13.507Z,98428.56
2023-05-12T06:37:45.042Z,98434.13
2023-05-12T06:40:13.211Z,98435.28
2023-05-12T06:42:41.820Z,98430.81
2023-05-12T06:45:11.510Z,98436.28
2023-05-12T06:47:40.955Z,98431.50
2023-05-12T06:50:11.398Z,98427.66
2023-05-12T06:52:40.324Z,98431.53
2023-05-12T06:55:09.787Z,98428.22
2023-05-12T06:57:38.567Z,98430.25
2023-05-12T07:00:08.361Z,98425.25
2023-05-12T07:02:37.386Z,98430.03
2023-05-12T07:05:06.672Z,98428.97
2023-05-12T07:07:36.873Z,98423.66
2023-05-12T07:10:06.713Z,98429.28
2023-05-12T07:12:35.364Z,98424.13
2023-05-12T07:15:04.619Z,98429.34
2023-05-12T07:17:33.538Z,98425.34
2023-05-12T07:20:01.873Z,98429.75
2023-05-12T07:22:32.483Z,98418.69
2023-05-12T07:25:02.580Z,98421.41
2023-05-12T07:27:31.037Z,98421.88
2023-05-12T07:29:59.338Z,98419.25
2023-05-12T07:32:28.167Z,98412.78
2023-05-12T07:34:56.649Z,98416.91
2023-05-12T07:37:25.474Z,98423.66
2023-05-12T07:39:53.786Z,98411.41
2023-05-12T07:42:24.350Z,98407.81
2023-05-12T07:44:52.568Z,98418.50
2023-05-12T07:47:21.089Z,98421.47
2023-05-12T07:49:49.448Z,98417.56
2023-05-12T07:52:18.013Z,98420.78
2023-05-12T07:54:46.211Z,98423.75
2023-05-12T07:57:14.820Z,98415.84
2023-05-12T07:59:44.848Z,98410.19
2023-05-12T08:02:13.532Z,98418.63
2023-05-12T08:04:43.858Z,98411.78
2023-05-12T08:07:13.869Z,98433.00
2023-05-12T08:09:42.489Z,98421.50
2023-05-12T08:12:11.392Z,98418.69
2023-05-12T08:14:39.807Z,98416.66
2023-05-12T08:17:11.019Z,98423.38
2023-05-12T08:19:39.208Z,98431.13
2023-05-12T08:22:07.706Z,98422.75
2023-05-12T08:24:36.161Z,98420.53
2023-05-12T08:27:05.080Z,98419.53
2023-05-12T08:29:33.221Z,98419.13
2023-05-12T08:32:01.731Z,98422.66
2023-05-12T08:34:31.797Z,98416.78
2023-05-12T08:37:00.465Z,98426.34
2023-05-12T08:39:31.079Z,98422.56
2023-05-12T08:42:07.228Z,98421.56
2023-05-12T08:44:35.646Z,98429.06
2023-05-12T08:47:06.011Z,98414.56
2023-05-12T08:49:38.863Z,98419.75
2023-05-12T08:52:09.743Z,98423.25
2023-05-12T08:54:48.701Z,98414.28
2023-05-12T08:57:24.603Z,98422.66
2023-05-12T08:59:55.850Z,98430.84
2023-05-12T09:02:35.012Z,98430.13
2023-05-12T09:05:11.859Z,98417.47
2023-05-12T09:07:44.977Z,98420.56
2023-05-12T09:10:32.318Z,98420.78
2023-05-12T09:13:05.626Z,98418.13
2023-05-12T09:15:37.947Z,98412.19
2023-05-12T09:18:06.931Z,98422.25
2023-05-12T09:20:36.834Z,98420.06
2023-05-12T09:23:19.773Z,98421.69
2023-05-12T09:26:01.331Z,98419.75
2023-05-12T09:28:37.256Z,98413.88
2023-05-12T09:31:16.684Z,98423.63
2023-05-12T09:33:45.285Z,98440.31
2023-05-12T09:36:18.360Z,98418.91
2023-05-12T09:38:47.046Z,98404.34
2023-05-12T09:41:15.238Z,98415.69
2023-05-12T09:43:47.292Z,98419.75
2023-05-12T09:46:15.857Z,98425.56
2023-05-12T09:48:44.726Z,98450.91
2023-05-12T09:51:18.465Z,98427.28
2023-05-12T09:53:47.044Z,98436.84
2023-05-12T09:56:16.340Z,98426.53
2023-05-12T09:58:45.964Z,98427.22
2023-05-12T10:01:22.776Z,98451.28
2023-05-12T10:03:55.006Z,98428.22
2023-05-12T10:06:29.652Z,98410.44
2023-05-12T10:09:05.804Z,98416.34
2023-05-12T10:11:35.247Z,98442.19
2023-05-12T10:14:03.947Z,98420.34
2023-05-12T10:16:33.227Z,98446.06
2023-05-12T10:19:02.001Z,98409.66
2023-05-12T10:21:31.834Z,98428.88
2023-05-12T10:24:00.674Z,98416.44
2023-05-12T10:26:29.710Z,98431.41
2023-05-12T10:28:58.737Z,98433.66
2023-05-12T10:31:28.215Z,98425.97
2023-05-12T10:34:00.196Z,98419.56
2023-05-12T10:36:29.194Z,98420.56
2023-05-12T10:39:06.812Z,98411.13
2023-05-12T10:41:36.531Z,98418.09
2023-05-12T10:44:05.194Z,98420.69
2023-05-12T10:46:33.607Z,98432.94
2023-05-12T10:49:04.532Z,98438.91
2023-05-12T10:51:34.582Z,98418.25
2023-05-12T10:54:06.038Z,98398.41
2023-05-12T10:56:42.135Z,98436.16
2023-05-12T10:59:17.631Z,98420.09
2023-05-12T11:01:58.900Z,98422.81
2023-05-12T11:04:41.082Z,98417.13
2023-05-12T11:07:10.571Z,98415.81
2023-05-12T11:09:50.728Z,98427.06
2023-05-12T11:12:26.771Z,98417.59
2023-05-12T11:14:56.809Z,98409.97
2023-05-12T11:17:25.658Z,98399.13
2023-05-12T11:19:55.579Z,98431.06
2023-05-12T11:22:25.207Z,98411.09
2023-05-12T11:24:55.401Z,98413.25
2023-05-12T11:27:24.403Z,98418.50
2023-05-12T11:30:01.064Z,98421.53
2023-05-12T11:32:29.996Z,98422.69
2023-05-12T11:35:10.843Z,98434.00
2023-05-12T11:37:40.350Z,98450.00
2023-05-12T11:40:18.198Z,98444.09
2023-05-12T11:42:49.257Z,98422.94
2023-05-12T11:45:22.871Z,98418.22
2023-05-12T11:47:51.546Z,98435.19
2023-05-12T11:50:25.918Z,98432.91
2023-05-12T11:52:54.763Z,98435.69
2023-05-12T11:55:25.685Z,98433.97
2023-05-12T11:57:59.355Z,98438.94
2023-05-12T12:00:32.387Z,98440.03
2023-05-12T12:03:09.008Z,98448.16
2023-05-12T12:05:38.857Z,98445.75
2023-05-12T12:08:09.076Z,98448.88
2023-05-12T12:10:38.986Z,98432.34
2023-05-12T12:13:07.521Z,98428.06
2023-05-12T12:15:36.125Z,98451.41
2023-05-12T12:18:04.493Z,98433.19
2023-05-12T12:20:33.368Z,98427.06
2023-05-12T12:23:01.755Z,98434.19
2023-05-12T12:25:31.404Z,98447.75
2023-05-12T12:28:01.121Z,98465.78
2023-05-12T12:30:29.882Z,98449.09
2023-05-12T12:32:58.320Z,98458.94
2023-05-12T12:35:27.026Z,98438.13
2023-05-12T12:37:55.662Z,98450.06
2023-05-12T12:40:24.251Z,98476.63
2023-05-12T12:42:52.673Z,98456.88
2023-05-12T12:45:22.798Z,98457.34
2023-05-12T12:47:54.967Z,98461.16
2023-05-12T12:50:25.248Z,98452.97
2023-05-12T12:52:55.316Z,98442.59
2023-05-12T12:55:24.301Z,98446.41
2023-05-12T12:57:52.816Z,98431.09
2023-05-12T13:00:24.484Z,98441.72
2023-05-12T13:02:52.911Z,98459.31
2023-05-12T13:05:22.001Z,98445.50
2023-05-12T13:07:51.542Z,98438.41
2023-05-12T13:10:20.269Z,98456.19
2023-05-12T13:12:48.862Z,98451.78
2023-05-12T13:15:19.406Z,98453.50
2023-05-12T13:17:49.685Z,98447.94
2023-05-12T13:20:18.360Z,98439.75
2023-05-12T13:22:46.928Z,98431.94
2023-05-12T13:25:15.809Z,98435.16
2023-05-12T13:27:44.288Z,98455.00
2023-05-12T13:30:13.897Z,98461.03
2023-05-12T13:32:42.746Z,98443.88
2023-05-12T13:35:13.706Z,98432.63
2023-05-12T13:37:42.053Z,98423.66
2023-05-12T13:40:11.644Z,98436.13
2023-05-12T13:42:40.170Z,98438.75
2023-05-12T13:45:10.532Z,98425.28
2023-05-12T13:47:39.425Z,98432.81
2023-05-12T13:50:09.239Z,98457.28
2023-05-12T13:52:39.381Z,98447.09
2023-05-12T13:55:08.400Z,98426.69
2023-05-12T13:57:36.701Z,98436.75
2023-05-12T14:00:08.633Z,98426.91
2023-05-12T14:02:37.660Z,98417.63
2023-05-12T14:05:07.754Z,98427.91
2023-05-12T14:07:36.070Z,98419.75
2023-05-12T14:10:07.257Z,98421.00
2023-05-12T14:12:37.111Z,98411.97
2023-05-12T14:15:29.101Z,98411.63
2023-05-12T14:17:55.495Z,98426.69
2023-05-12T14:20:24.681Z,98431.44
2023-05-12T14:22:55.652Z,98430.91
2023-05-12T14:25:25.518Z,98424.00
2023-05-12T14:27:53.883Z,98411.97
2023-05-12T14:30:22.891Z,98412.09
2023-05-12T14:32:53.320Z,98419.25
2023-05-12T14:35:22.434Z,98427.41
2023-05-12T14:37:51.123Z,98436.91
2023-05-12T14:40:19.685Z,98442.78
2023-05-12T14:42:49.561Z,98433.47
2023-05-12T14:45:18.370Z,98443.69
2023-05-12T14:47:47.265Z,98429.81
2023-05-12T14:50:15.978Z,98435.06
2023-05-12T14:52:44.639Z,98434.69
2023-05-12T14:55:13.937Z,98436.19
2023-05-12T14:57:43.278Z,98430.16
2023-05-12T15:00:16.125Z,98439.91
2023-05-12T15:02:45.655Z,98429.28
2023-05-12T15:05:15.336Z,98430.03
2023-05-12T15:07:43.923Z,98432.84
2023-05-12T15:10:13.025Z,98421.66
2023-05-12T15:12:41.374Z,98420.66
2023-05-12T15:15:12.060Z,98449.06
2023-05-12T15:17:41.763Z,98426.78
2023-05-12T15:20:11.126Z,98436.03
2023-05-12T15:22:39.409Z,98445.34
2023-05-12T15:25:09.702Z,98441.66
2023-05-12T15:27:38.343Z,98442.09
2023-05-12T15:30:08.366Z,98440.31
2023-05-12T15:32:36.897Z,98436.63
2023-05-12T15:35:07.661Z,98439.66
2023-05-12T15:37:36.119Z,98434.00
2023-05-12T15:40:05.562Z,98445.22
2023-05-12T15:42:33.891Z,98439.84
2023-05-12T15:45:02.660Z,98436.81
2023-05-12T15:47:31.178Z,98427.53
2023-05-12T15:50:00.013Z,98456.63
2023-05-12T15:52:30.130Z,98437.91
2023-05-12T15:54:58.855Z,98435.91
2023-05-12T15:57:27.327Z,98423.03
2023-05-12T15:59:59.902Z,98430.97
2023-05-12T16:02:29.697Z,98421.47
2023-05-12T16:04:58.403Z,98439.38
2023-05-12T16:07:29.453Z,98431.44
2023-05-12T16:09:59.963Z,98436.66
2023-05-12T16:12:28.225Z,98440.31
2023-05-12T16:14:56.756Z,98457.22
2023-05-12T16:17:25.095Z,98429.56
2023-05-12T16:19:56.326Z,98438.03
2023-05-12T16:22:25.329Z,98437.34
2023-05-12T16:24:55.755Z,98438.66
2023-05-12T16:27:25.886Z,98442.91
2023-05-12T16:29:54.657Z,98455.22
2023-05-12T16:32:23.612Z,98445.91
2023-05-12T16:34:52.228Z,98453.97
2023-05-12T16:37:20.521Z,98445.66
2023-05-12T16:39:49.045Z,98462.09
2023-05-12T16:42:17.227Z,98463.84
2023-05-12T16:44:47.420Z,98462.81
2023-05-12T16:47:15.819Z,98452.25
2023-05-12T16:49:44.412Z,98465.38
2023-05-12T16:52:12.759Z,98461.94
2023-05-12T16:54:42.291Z,98473.66
2023-05-12T16:57:10.706Z,98477.00
2023-05-12T16:59:39.820Z,98458.28
2023-05-12T17:02:09.839Z,98452.13
2023-05-12T17:04:38.781Z,98463.56
2023-05-12T17:07:07.524Z,98473.84
2023-05-12T17:09:36.490Z,98466.59
2023-05-12T17:12:06.952Z,98492.25
2023-05-12T17:14:35.819Z,98467.22
2023-05-12T17:17:04.637Z,98472.28
2023-05-12T17:19:34.883Z,98478.66
2023-05-12T17:22:03.798Z,98473.44
2023-05-12T17:24:32.606Z,98491.28
2023-05-12T17:27:01.355Z,98476.22
2023-05-12T17:29:29.958Z,98486.78
2023-05-12T17:32:00.177Z,98487.84
2023-05-12T17:34:28.941Z,98502.63
2023-05-12T17:36:59.365Z,98508.81
2023-05-12T17:39:27.924Z,98496.34
2023-05-12T17:41:56.224Z,98501.53
2023-05-12T17:44:24.805Z,98486.78
2023-05-12T17:46:53.151Z,98499.72
2023-05-12T17:49:21.816Z,98513.31
2023-05-12T17:51:50.686Z,98510.84
2023-05-12T17:54:20.700Z,98511.63
2023-05-12T17:56:49.096Z,98506.97
2023-05-12T17:59:17.800Z,98507.09
2023-05-12T18:01:46.142Z,98517.63
2023-05-12T18:04:14.748Z,98515.97
2023-05-12T18:06:43.960Z,98508.16
2023-05-12T18:09:13.747Z,98504.94
2023-05-12T18:11:43.955Z,98519.25
2023-05-12T18:14:12.513Z,98513.00
2023-05-12T18:16:41.091Z,98514.06
2023-05-12T18:19:09.911Z,98520.09
2023-05-12T18:21:38.325Z,98532.44
2023-05-12T18:24:07.552Z,98530.47
2023-05-12T18:26:35.883Z,98529.34
2023-05-12T18:29:06.092Z,98529.53
2023-05-12T18:31:36.247Z,98540.59
2023-05-12T18:34:04.818Z,98537.16
2023-05-12T18:36:33.399Z,98538.63
2023-05-12T18:39:02.020Z,98544.84
2023-05-12T18:41:30.423Z,98550.03
2023-05-12T18:43:58.984Z,98545.97
2023-05-12T18:46:28.675Z,98550.00
2023-05-12T18:48:57.329Z,98547.63
2023-05-12T18:51:25.658Z,98559.91
2023-05-12T18:53:54.247Z,98546.44
2023-05-12T18:56:22.711Z,98571.50
2023-05-12T18:58:51.308Z,98563.56
2023-05-12T19:01:19.972Z,98558.16
2023-05-12T19:03:49.860Z,98555.69
2023-05-12T19:06:18.274Z,98558.31
2023-05-12T19:08:47.153Z,98556.38
2023-05-12T19:11:15.395Z,98558.78
2023-05-12T19:13:45.630Z,98568.28
2023-05-12T19:16:14.035Z,98559.59
2023-05-12T19:18:42.741Z,98573.25
2023-05-12T19:21:12.663Z,98565.81
2023-05-12T19:23:41.260Z,98563.38
2023-05-12T19:26:10.953Z,98561.22
2023-05-12T19:28:39.499Z,98562.88
2023-05-12T19:31:07.816Z,98579.56
2023-05-12T19:33:36.306Z,98577.53
2023-05-12T19:36:04.622Z,98581.72
2023-05-12T19:38:35.071Z,98574.28
2023-05-12T19:41:03.249Z,98579.78
2023-05-12T19:43:32.032Z,98589.19
2023-05-12T19:46:00.522Z,98583.38
2023-05-12T19:48:29.206Z,98583.31
2023-05-12T19:50:57.635Z,98588.97
2023-05-12T19:53:26.882Z,98583.66
2023-05-12T19:55:57.423Z,98572.13
2023-05-12T19:58:26.525Z,98579.03
2023-05-12T20:00:55.868Z,98587.34
2023-05-12T20:03:24.726Z,98577.28
2023-05-12T20:05:53.210Z,98581.31
2023-05-12T20:08:22.219Z,98588.53
2023-05-12T20:10:50.602Z,98582.88
2023-05-12T20:13:20.579Z,98581.97
2023-05-12T20:15:48.812Z,98572.72
2023-05-12T20:18:17.568Z,98583.63
2023-05-12T20:20:46.023Z,98588.72
2023-05-12T20:23:14.588Z,98588.81
2023-05-12T20:25:43.398Z,98586.59
2023-05-12T20:28:11.991Z,98580.28
2023-05-12T20:30:41.950Z,98579.47
2023-05-12T20:33:10.453Z,98584.19
2023-05-12T20:35:39.049Z,98575.56
2023-05-12T20:38:07.752Z,98576.06
2023-05-12T20:40:36.171Z,98571.47
2023-05-12T20:43:04.761Z,98571.22
2023-05-12T20:45:33.370Z,98562.28
2023-05-12T20:48:04.845Z,98566.50
2023-05-12T20:50:33.113Z,98566.31
2023-05-12T20:53:02.003Z,98563.63
2023-05-12T20:55:30.306Z,98566.53
2023-05-12T20:57:59.047Z,98570.72
2023-05-12T21:00:27.246Z,98573.16
2023-05-12T21:02:56.218Z,98575.91
2023-05-12T21:05:25.936Z,98568.22
2023-05-12T21:07:54.677Z,98576.03
2023-05-12T21:10:23.350Z,98573.09
2023-05-12T21:12:52.317Z,98573.31
2023-05-12T21:15:20.708Z,98570.72
2023-05-12T21:17:49.782Z,98574.97
2023-05-12T21:20:18.199Z,98582.72
2023-05-12T21:22:48.433Z,98573.34
2023-05-12T21:25:16.728Z,98571.63
2023-05-12T21:27:47.496Z,98570.03
2023-05-12T21:30:16.273Z,98568.81
2023-05-12T21:32:44.905Z,98575.78
2023-05-12T21:35:13.626Z,98575.97
2023-05-12T21:37:42.264Z,98572.25
2023-05-12T21:40:13.262Z,98568.28
2023-05-12T21:42:41.871Z,98575.03
2023-05-12T21:45:11.104Z,98578.81
2023-05-12T21:47:39.967Z,98583.00
2023-05-12T21:50:08.530Z,98576.16
2023-05-12T21:52:37.400Z,98577.72
2023-05-12T21:55:06.447Z,98571.41
2023-05-12T21:57:39.806Z,98575.09
2023-05-12T22:00:10.255Z,98582.28
2023-05-12T22:02:38.716Z,98573.31
2023-05-12T22:05:08.725Z,98577.34
2023-05-12T22:07:37.324Z,98589.91
2023-05-12T22:10:06.184Z,98585.41
2023-05-12T22:12:36.907Z,98590.47
2023-05-12T22:15:05.969Z,98589.59
2023-05-12T22:17:34.862Z,98589.22
2023-05-12T22:20:04.248Z,98593.69
2023-05-12T22:22:33.042Z,98591.91
2023-05-12T22:25:01.301Z,98590.47
2023-05-12T22:27:29.964Z,98598.00
2023-05-12T22:29:59.930Z,98595.28
2023-05-12T22:32:28.499Z,98596.72
2023-05-12T22:34:56.847Z,98610.19
2023-05-12T22:37:25.873Z,98607.50
2023-05-12T22:39:54.788Z,98603.72
2023-05-12T22:42:23.706Z,98610.16
2023-05-12T22:44:52.009Z,98607.06
2023-05-12T22:47:22.151Z,98608.28
2023-05-12T22:49:50.632Z,98595.19
2023-05-12T22:52:19.126Z,98601.72
2023-05-12T22:54:47.458Z,98610.16
2023-05-12T22:57:15.931Z,98612.09
2023-05-12T22:59:44.393Z,98611.09
2023-05-12T23:02:12.863Z,98606.69
2023-05-12T23:04:42.562Z,98603.81
2023-05-12T23:10:03.191Z,98603.25
2023-05-12T23:12:36.453Z,98609.69
2023-05-12T23:15:06.054Z,98612.19
2023-05-12T23:17:34.675Z,98605.47
2023-05-12T23:20:04.814Z,98608.69
2023-05-12T23:22:33.430Z,98607.88
2023-05-12T23:25:02.201Z,98602.13
2023-05-12T23:27:30.630Z,98603.13
2023-05-12T23:29:59.210Z,98603.91
2023-05-12T23:32:27.896Z,98610.72
2023-05-12T23:34:56.473Z,98607.97
2023-05-12T23:37:26.990Z,98603.38
2023-05-12T23:39:55.247Z,98605.16
2023-05-12T23:42:23.929Z,98601.53
2023-05-12T23:44:52.101Z,98602.91
2023-05-12T23:47:20.818Z,98601.28
2023-05-12T23:49:49.054Z,98601.25
2023-05-12T23:52:21.002Z,98603.72
2023-05-12T23:54:50.859Z,98603.00
2023-05-12T23:57:19.425Z,98600.06
2023-05-12T23:59:48.242Z,98604.09
